createdAt,value
2022-08-12T00:00:08.042Z,88.80
2022-08-12T00:02:03.866Z,88.30
2022-08-12T00:03:09.652Z,88.60
2022-08-12T00:04:31.941Z,88.90
2022-08-12T00:06:05.085Z,88.70
2022-08-12T00:07:27.182Z,88.00
2022-08-12T00:08:48.081Z,89.10
2022-08-12T00:10:09.154Z,89.30
2022-08-12T00:11:29.933Z,88.90
2022-08-12T00:12:50.649Z,89.40
2022-08-12T00:14:11.526Z,89.40
2022-08-12T00:15:34.325Z,89.80
2022-08-12T00:16:56.147Z,90.00
2022-08-12T00:18:16.994Z,90.10
2022-08-12T00:19:37.954Z,90.10
2022-08-12T00:21:01.328Z,90.30
2022-08-12T00:22:22.306Z,90.20
2022-08-12T00:23:42.966Z,90.40
2022-08-12T00:25:03.704Z,90.30
2022-08-12T00:26:24.718Z,90.60
2022-08-12T00:27:45.958Z,90.60
2022-08-12T00:29:07.982Z,90.60
2022-08-12T00:30:30.196Z,90.80
2022-08-12T00:31:50.550Z,90.80
2022-08-12T00:33:11.864Z,91.00
2022-08-12T00:34:33.661Z,90.80
2022-08-12T00:35:54.501Z,90.90
2022-08-12T00:37:16.645Z,91.20
2022-08-12T00:38:38.534Z,91.10
2022-08-12T00:40:00.210Z,91.10
2022-08-12T00:41:21.610Z,91.30
2022-08-12T00:42:26.158Z,91.30
2022-08-12T00:43:30.173Z,91.40
2022-08-12T00:44:32.502Z,91.60
2022-08-12T00:45:56.198Z,91.70
2022-08-12T00:47:00.544Z,91.70
2022-08-12T00:48:03.980Z,92.10
2022-08-12T00:49:07.528Z,92.10
2022-08-12T00:50:18.481Z,91.90
2022-08-12T00:51:21.858Z,92.00
2022-08-12T00:52:26.818Z,92.00
2022-08-12T00:53:30.653Z,92.00
2022-08-12T00:54:35.804Z,92.20
2022-08-12T00:55:45.034Z,92.40
2022-08-12T00:56:49.175Z,92.40
2022-08-12T00:57:53.440Z,92.20
2022-08-12T00:58:57.093Z,91.90
2022-08-12T01:00:02.690Z,92.00
2022-08-12T01:01:07.599Z,92.10
2022-08-12T01:02:14.696Z,92.20
2022-08-12T01:03:20.761Z,92.20
2022-08-12T01:04:46.720Z,92.60
2022-08-12T01:06:10.828Z,92.50
2022-08-12T01:07:32.788Z,92.40
2022-08-12T01:08:54.882Z,92.60
2022-08-12T01:10:16.141Z,92.60
2022-08-12T01:11:32.949Z,92.30
2022-08-12T01:12:36.592Z,92.40
2022-08-12T01:13:43.572Z,92.70
2022-08-12T01:14:45.976Z,92.70
2022-08-12T01:15:51.715Z,92.90
2022-08-12T01:16:54.325Z,92.50
2022-08-12T01:17:57.449Z,93.00
2022-08-12T01:19:01.059Z,92.70
2022-08-12T01:20:07.881Z,92.70
2022-08-12T01:21:13.864Z,92.70
2022-08-12T01:22:25.183Z,92.80
2022-08-12T01:23:48.601Z,92.90
2022-08-12T01:24:59.183Z,93.00
2022-08-12T01:26:03.897Z,93.00
2022-08-12T01:27:11.216Z,92.90
2022-08-12T01:28:15.987Z,93.00
2022-08-12T01:29:25.665Z,93.20
2022-08-12T01:30:33.734Z,93.30
2022-08-12T01:31:39.278Z,93.70
2022-08-12T01:32:42.343Z,93.40
2022-08-12T01:33:57.235Z,93.30
2022-08-12T01:35:06.145Z,93.00
2022-08-12T01:36:12.915Z,93.20
2022-08-12T01:37:19.368Z,93.40
2022-08-12T01:38:30.060Z,93.60
2022-08-12T01:39:37.453Z,93.60
2022-08-12T01:40:47.792Z,93.70
2022-08-12T01:41:54.179Z,93.90
2022-08-12T01:43:08.434Z,94.30
2022-08-12T01:44:11.406Z,94.10
2022-08-12T01:45:17.510Z,93.50
2022-08-12T01:46:29.736Z,93.40
2022-08-12T01:47:49.620Z,93.50
2022-08-12T01:49:02.933Z,93.50
2022-08-12T01:50:17.548Z,93.80
2022-08-12T01:52:19.934Z,93.80
2022-08-12T01:53:05.507Z,94.20
2022-08-12T01:54:10.893Z,94.30
2022-08-12T01:55:16.834Z,94.60
2022-08-12T01:56:24.140Z,94.60
2022-08-12T01:57:58.463Z,94.80
2022-08-12T01:59:23.056Z,94.40
2022-08-12T02:00:43.439Z,93.70
2022-08-12T02:02:00.141Z,94.00
2022-08-12T02:03:15.319Z,93.60
2022-08-12T02:04:46.610Z,94.00
2022-08-12T02:06:17.758Z,93.90
2022-08-12T02:07:50.632Z,94.20
2022-08-12T02:09:18.078Z,93.90
2022-08-12T02:10:49.893Z,94.20
2022-08-12T02:12:06.255Z,94.60
2022-08-12T02:13:48.462Z,94.50
2022-08-12T02:14:52.707Z,94.70
2022-08-12T02:15:59.470Z,94.90
2022-08-12T02:17:18.893Z,95.00
2022-08-12T02:18:34.351Z,95.30
2022-08-12T02:19:53.445Z,95.10
2022-08-12T02:21:02.079Z,95.40
2022-08-12T02:22:17.965Z,95.00
2022-08-12T02:23:25.572Z,95.00
2022-08-12T02:24:33.402Z,95.00
2022-08-12T02:25:38.809Z,95.00
2022-08-12T02:26:44.595Z,95.20
2022-08-12T02:27:51.113Z,95.20
2022-08-12T02:28:54.517Z,95.20
2022-08-12T02:29:57.316Z,95.10
2022-08-12T02:31:05.307Z,95.30
2022-08-12T02:32:08.496Z,95.50
2022-08-12T02:33:12.589Z,95.50
2022-08-12T02:34:16.608Z,95.40
2022-08-12T02:35:22.691Z,95.50
2022-08-12T02:36:25.335Z,96.00
2022-08-12T02:37:32.982Z,96.00
2022-08-12T02:38:36.561Z,96.00
2022-08-12T02:39:45.719Z,96.10
2022-08-12T02:40:51.988Z,96.30
2022-08-12T02:41:59.533Z,95.70
2022-08-12T02:43:12.193Z,95.90
2022-08-12T02:44:16.739Z,96.20
2022-08-12T02:45:25.019Z,96.30
2022-08-12T02:46:32.358Z,96.00
2022-08-12T02:48:00.148Z,95.90
2022-08-12T02:49:07.097Z,96.40
2022-08-12T02:50:13.537Z,96.40
2022-08-12T02:51:19.406Z,96.40
2022-08-12T02:52:23.302Z,96.80
2022-08-12T02:53:28.333Z,96.10
2022-08-12T02:54:30.489Z,96.30
2022-08-12T02:55:36.295Z,96.40
2022-08-12T02:56:41.367Z,96.30
2022-08-12T02:57:45.344Z,96.50
2022-08-12T02:58:49.599Z,96.70
2022-08-12T02:59:53.911Z,96.40
2022-08-12T03:00:56.333Z,96.50
2022-08-12T03:02:03.257Z,96.50
2022-08-12T03:03:07.605Z,96.80
2022-08-12T03:04:20.903Z,96.70
2022-08-12T03:05:25.151Z,96.90
2022-08-12T03:06:35.144Z,97.50
2022-08-12T03:07:59.639Z,97.40
2022-08-12T03:09:05.418Z,97.30
2022-08-12T03:10:15.849Z,97.20
2022-08-12T03:11:26.459Z,97.20
2022-08-12T03:12:33.755Z,97.30
2022-08-12T03:13:40.282Z,97.60
2022-08-12T03:14:44.764Z,97.60
2022-08-12T03:15:48.110Z,97.80
2022-08-12T03:16:57.993Z,98.10
2022-08-12T03:18:23.520Z,98.20
2022-08-12T03:19:31.138Z,98.30
2022-08-12T03:20:40.359Z,99.00
2022-08-12T03:21:55.506Z,98.80
2022-08-12T03:23:11.698Z,98.70
2022-08-12T03:24:32.657Z,98.70
2022-08-12T03:25:38.617Z,99.00
2022-08-12T03:26:45.819Z,99.20
2022-08-12T03:27:51.727Z,99.10
2022-08-12T03:28:58.063Z,99.60
2022-08-12T03:30:01.517Z,99.60
2022-08-12T03:31:07.464Z,99.60
2022-08-12T03:32:09.521Z,99.80
2022-08-12T03:33:37.315Z,99.90
2022-08-12T03:34:42.591Z,99.50
2022-08-12T03:35:47.806Z,99.80
2022-08-12T03:36:55.322Z,99.80
2022-08-12T03:38:00.758Z,99.30
2022-08-12T03:39:36.581Z,99.30
2022-08-12T03:41:11.883Z,99.30
2022-08-12T03:42:34.521Z,99.20
2022-08-12T03:44:06.671Z,99.00
2022-08-12T03:45:52.164Z,98.20
2022-08-12T03:47:23.007Z,98.40
2022-08-12T03:48:44.362Z,98.00
2022-08-12T03:50:05.745Z,98.40
2022-08-12T03:51:27.723Z,98.10
2022-08-12T03:52:48.821Z,98.60
2022-08-12T03:54:11.551Z,98.70
2022-08-12T03:55:33.629Z,98.90
2022-08-12T03:56:54.663Z,99.60
2022-08-12T03:58:16.003Z,99.60
2022-08-12T03:59:37.031Z,99.60
2022-08-12T04:00:41.778Z,99.60
2022-08-12T04:01:44.153Z,99.00
2022-08-12T04:02:55.686Z,99.50
2022-08-12T04:03:59.347Z,99.50
2022-08-12T04:05:03.432Z,99.20
2022-08-12T04:06:08.990Z,99.50
2022-08-12T04:07:14.115Z,99.60
2022-08-12T04:08:18.358Z,99.90
2022-08-12T04:09:23.033Z,99.90
2022-08-12T04:10:48.447Z,99.90
2022-08-12T04:12:09.469Z,99.90
2022-08-12T04:13:19.688Z,99.90
2022-08-12T04:14:22.849Z,99.90
2022-08-12T04:15:29.067Z,99.90
2022-08-12T04:16:34.604Z,99.90
2022-08-12T04:17:37.852Z,99.90
2022-08-12T04:19:01.503Z,99.90
2022-08-12T04:20:05.406Z,99.90
2022-08-12T04:21:09.965Z,99.90
2022-08-12T04:22:12.904Z,99.90
2022-08-12T04:23:16.739Z,99.90
2022-08-12T04:24:21.895Z,99.90
2022-08-12T04:25:26.421Z,99.90
2022-08-12T04:26:30.561Z,99.90
2022-08-12T04:27:32.978Z,99.90
2022-08-12T04:28:36.375Z,99.90
2022-08-12T04:30:30.649Z,99.90
2022-08-12T04:31:02.855Z,99.90
2022-08-12T04:32:07.615Z,99.90
2022-08-12T04:33:11.165Z,99.90
2022-08-12T04:34:13.513Z,99.90
2022-08-12T04:35:17.894Z,99.90
2022-08-12T04:36:21.079Z,99.90
2022-08-12T04:37:24.267Z,99.90
2022-08-12T04:38:29.406Z,99.90
2022-08-12T04:39:33.810Z,99.90
2022-08-12T04:40:36.598Z,99.90
2022-08-12T04:41:58.087Z,99.90
2022-08-12T04:43:01.394Z,99.90
2022-08-12T04:44:05.691Z,99.90
2022-08-12T04:45:09.715Z,99.90
2022-08-12T04:46:19.559Z,99.90
2022-08-12T04:47:26.817Z,99.90
2022-08-12T04:48:32.427Z,99.90
2022-08-12T04:49:36.558Z,99.90
2022-08-12T04:50:39.664Z,99.90
2022-08-12T04:51:42.338Z,99.90
2022-08-12T04:52:58.500Z,99.90
2022-08-12T04:54:01.428Z,99.90
2022-08-12T04:55:05.206Z,99.90
2022-08-12T04:56:08.603Z,99.90
2022-08-12T04:57:11.716Z,99.90
2022-08-12T04:58:13.868Z,99.90
2022-08-12T04:59:18.558Z,99.90
2022-08-12T05:00:21.190Z,99.90
2022-08-12T05:01:27.919Z,99.90
2022-08-12T05:02:31.352Z,99.90
2022-08-12T05:03:46.531Z,99.90
2022-08-12T05:04:51.824Z,99.90
2022-08-12T05:05:57.047Z,99.90
2022-08-12T05:06:59.218Z,99.90
2022-08-12T05:08:02.252Z,99.90
2022-08-12T05:09:13.457Z,99.90
2022-08-12T05:10:17.604Z,99.90
2022-08-12T05:11:22.343Z,99.70
2022-08-12T05:12:26.898Z,99.40
2022-08-12T05:13:33.253Z,99.00
2022-08-12T05:14:37.629Z,99.00
2022-08-12T05:16:05.125Z,98.70
2022-08-12T05:17:06.537Z,98.30
2022-08-12T05:18:19.741Z,98.50
2022-08-12T05:19:23.908Z,98.40
2022-08-12T05:20:26.266Z,98.40
2022-08-12T05:21:29.432Z,98.50
2022-08-12T05:22:31.480Z,98.40
2022-08-12T05:23:41.067Z,98.50
2022-08-12T05:24:44.119Z,98.70
2022-08-12T05:25:50.806Z,98.10
2022-08-12T05:26:52.900Z,98.20
2022-08-12T05:27:59.190Z,98.30
2022-08-12T05:29:02.041Z,98.10
2022-08-12T05:30:09.229Z,97.90
2022-08-12T05:31:12.669Z,98.00
2022-08-12T05:32:20.488Z,98.00
2022-08-12T05:33:26.744Z,97.50
2022-08-12T05:34:30.568Z,97.60
2022-08-12T05:35:36.885Z,97.90
2022-08-12T05:36:38.948Z,97.80
2022-08-12T05:37:41.940Z,97.30
2022-08-12T05:38:58.906Z,97.40
2022-08-12T05:40:01.153Z,97.80
2022-08-12T05:41:06.907Z,97.50
2022-08-12T05:42:11.960Z,97.50
2022-08-12T05:43:14.396Z,97.50
2022-08-12T05:44:17.620Z,97.20
2022-08-12T05:45:19.634Z,97.20
2022-08-12T05:46:23.772Z,96.70
2022-08-12T05:47:36.598Z,96.90
2022-08-12T05:48:54.428Z,96.90
2022-08-12T05:49:59.392Z,97.00
2022-08-12T05:51:01.577Z,96.80
2022-08-12T05:52:04.937Z,96.80
2022-08-12T05:53:07.132Z,96.70
2022-08-12T05:54:12.067Z,96.90
2022-08-12T05:55:14.268Z,96.90
2022-08-12T05:56:22.763Z,96.90
2022-08-12T05:57:25.792Z,97.00
2022-08-12T05:58:30.981Z,96.80
2022-08-12T05:59:34.043Z,96.90
2022-08-12T06:00:37.298Z,96.80
2022-08-12T06:02:12.012Z,97.10
2022-08-12T06:03:04.839Z,97.10
2022-08-12T06:04:09.830Z,97.00
2022-08-12T06:05:12.896Z,96.40
2022-08-12T06:06:17.159Z,96.40
2022-08-12T06:07:58.951Z,96.50
2022-08-12T06:08:45.011Z,96.80
2022-08-12T06:09:46.999Z,96.20
2022-08-12T06:10:50.715Z,96.20
2022-08-12T06:12:04.555Z,96.00
2022-08-12T06:13:09.146Z,95.30
2022-08-12T06:14:12.430Z,94.70
2022-08-12T06:15:14.871Z,94.40
2022-08-12T06:16:19.555Z,94.10
2022-08-12T06:17:22.960Z,93.60
2022-08-12T06:18:29.740Z,92.90
2022-08-12T06:20:26.684Z,92.30
2022-08-12T06:21:01.721Z,91.50
2022-08-12T06:22:05.409Z,90.80
2022-08-12T06:23:08.255Z,90.00
2022-08-12T06:24:14.383Z,88.50
2022-08-12T06:25:21.914Z,88.10
2022-08-12T06:26:25.192Z,87.20
2022-08-12T06:27:27.236Z,85.80
2022-08-12T06:28:31.124Z,84.70
2022-08-12T06:29:35.820Z,84.90
2022-08-12T06:31:24.744Z,83.70
2022-08-12T06:32:27.547Z,82.20
2022-08-12T06:33:57.871Z,80.70
2022-08-12T06:35:24.214Z,79.30
2022-08-12T06:36:23.244Z,78.30
2022-08-12T06:37:25.851Z,78.20
2022-08-12T06:38:30.664Z,77.20
2022-08-12T06:39:32.971Z,76.60
2022-08-12T06:40:53.903Z,76.90
2022-08-12T06:42:33.029Z,76.30
2022-08-12T06:44:04.865Z,75.60
2022-08-12T06:44:59.493Z,74.70
2022-08-12T06:46:03.308Z,74.00
2022-08-12T06:47:06.821Z,74.10
2022-08-12T06:48:09.466Z,73.40
2022-08-12T06:49:13.210Z,74.00
2022-08-12T06:50:16.655Z,73.20
2022-08-12T06:51:20.724Z,72.80
2022-08-12T06:52:24.862Z,73.10
2022-08-12T06:53:26.960Z,72.20
2022-08-12T06:54:32.372Z,72.30
2022-08-12T06:55:34.853Z,72.30
2022-08-12T06:57:02.969Z,71.60
2022-08-12T06:58:10.201Z,71.60
2022-08-12T06:59:14.845Z,70.50
2022-08-12T07:00:21.819Z,68.70
2022-08-12T07:01:32.245Z,69.20
2022-08-12T07:02:38.446Z,69.30
2022-08-12T07:03:41.675Z,68.70
2022-08-12T07:04:43.776Z,68.30
2022-08-12T07:05:49.002Z,68.20
2022-08-12T07:06:55.848Z,67.90
2022-08-12T07:08:10.347Z,67.50
2022-08-12T07:09:16.383Z,67.10
2022-08-12T07:10:41.342Z,66.70
2022-08-12T07:11:44.588Z,65.70
2022-08-12T07:12:54.909Z,65.70
2022-08-12T07:14:10.243Z,64.90
2022-08-12T07:15:17.870Z,65.30
2022-08-12T07:16:22.119Z,65.60
2022-08-12T07:17:24.159Z,65.60
2022-08-12T07:18:30.479Z,65.30
2022-08-12T07:19:40.624Z,65.00
2022-08-12T07:20:52.805Z,65.30
2022-08-12T07:21:59.590Z,65.30
2022-08-12T07:23:05.973Z,63.90
2022-08-12T07:24:09.108Z,64.10
2022-08-12T07:25:29.913Z,64.90
2022-08-12T07:26:43.720Z,63.30
2022-08-12T07:27:46.791Z,64.70
2022-08-12T07:28:50.383Z,64.30
2022-08-12T07:29:58.372Z,63.30
2022-08-12T07:31:09.958Z,62.00
2022-08-12T07:32:12.791Z,62.70
2022-08-12T07:33:16.886Z,61.10
2022-08-12T07:34:19.007Z,61.40
2022-08-12T07:35:22.829Z,61.90
2022-08-12T07:36:27.751Z,60.30
2022-08-12T07:37:29.992Z,61.60
2022-08-12T07:38:35.568Z,59.70
2022-08-12T07:39:50.985Z,60.40
2022-08-12T07:41:06.152Z,60.10
2022-08-12T07:42:08.232Z,59.70
2022-08-12T07:43:11.275Z,59.10
2022-08-12T07:44:46.471Z,58.20
2022-08-12T07:46:00.605Z,58.50
2022-08-12T07:47:05.356Z,58.60
2022-08-12T07:48:07.548Z,60.00
2022-08-12T07:49:16.132Z,57.60
2022-08-12T07:50:23.836Z,57.70
2022-08-12T07:51:29.422Z,58.00
2022-08-12T07:52:32.430Z,57.70
2022-08-12T07:53:49.117Z,56.30
2022-08-12T07:55:10.270Z,57.40
2022-08-12T07:56:13.585Z,56.60
2022-08-12T07:57:15.803Z,57.10
2022-08-12T07:58:26.306Z,57.40
2022-08-12T07:59:28.776Z,57.80
2022-08-12T08:00:34.294Z,58.40
2022-08-12T08:01:38.079Z,58.80
2022-08-12T08:02:41.583Z,58.30
2022-08-12T08:04:00.219Z,59.70
2022-08-12T08:05:03.646Z,58.70
2022-08-12T08:06:18.905Z,57.20
2022-08-12T08:07:25.670Z,58.00
2022-08-12T08:08:30.338Z,57.90
2022-08-12T08:09:32.573Z,57.90
2022-08-12T08:10:35.609Z,57.70
2022-08-12T08:11:56.738Z,57.80
2022-08-12T08:13:04.374Z,55.70
2022-08-12T08:14:07.611Z,56.20
2022-08-12T08:15:11.592Z,56.10
2022-08-12T08:16:15.264Z,55.60
2022-08-12T08:17:17.683Z,55.70
2022-08-12T08:18:25.733Z,56.70
2022-08-12T08:19:48.483Z,56.00
2022-08-12T08:20:57.846Z,54.20
2022-08-12T08:22:00.192Z,55.10
2022-08-12T08:23:08.091Z,53.80
2022-08-12T08:24:15.754Z,53.30
2022-08-12T08:25:37.153Z,54.30
2022-08-12T08:26:40.765Z,54.10
2022-08-12T08:27:45.495Z,53.00
2022-08-12T08:28:48.558Z,52.70
2022-08-12T08:29:50.654Z,53.50
2022-08-12T08:30:53.753Z,53.50
2022-08-12T08:31:58.752Z,53.30
2022-08-12T08:33:02.039Z,53.80
2022-08-12T08:34:33.591Z,52.50
2022-08-12T08:35:46.418Z,52.20
2022-08-12T08:36:50.519Z,53.40
2022-08-12T08:37:53.287Z,53.70
2022-08-12T08:38:58.584Z,54.60
2022-08-12T08:40:22.102Z,56.10
2022-08-12T08:42:15.319Z,54.40
2022-08-12T08:43:07.208Z,57.10
2022-08-12T08:44:10.935Z,55.20
2022-08-12T08:45:14.039Z,55.10
2022-08-12T08:46:17.252Z,55.10
2022-08-12T08:47:21.968Z,55.70
2022-08-12T08:48:25.727Z,55.50
2022-08-12T08:49:28.172Z,54.30
2022-08-12T08:50:31.210Z,55.10
2022-08-12T08:51:33.567Z,56.80
2022-08-12T08:52:40.392Z,58.10
2022-08-12T08:53:44.701Z,58.50
2022-08-12T08:54:56.063Z,57.20
2022-08-12T08:56:04.910Z,56.80
2022-08-12T08:57:08.332Z,58.30
2022-08-12T08:58:12.018Z,56.80
2022-08-12T08:59:14.745Z,57.60
2022-08-12T09:00:19.920Z,56.30
2022-08-12T09:01:22.631Z,56.30
2022-08-12T09:02:25.711Z,56.50
2022-08-12T09:05:07.960Z,56.20
2022-08-12T09:05:11.268Z,57.30
2022-08-12T09:06:17.045Z,57.90
2022-08-12T09:07:51.656Z,57.30
2022-08-12T09:08:44.373Z,58.70
2022-08-12T09:10:02.638Z,56.50
2022-08-12T09:12:07.645Z,58.20
2022-08-12T09:13:03.210Z,57.80
2022-08-12T09:14:18.713Z,57.50
2022-08-12T09:15:21.819Z,58.10
2022-08-12T09:16:25.518Z,58.30
2022-08-12T09:17:27.890Z,58.70
2022-08-12T09:18:46.231Z,59.70
2022-08-12T09:21:16.220Z,56.90
2022-08-12T09:22:20.570Z,58.90
2022-08-12T09:24:49.875Z,60.10
2022-08-12T09:25:54.444Z,57.40
2022-08-12T09:26:59.145Z,57.90
2022-08-12T09:28:05.190Z,57.90
2022-08-12T09:29:12.373Z,58.20
2022-08-12T09:30:16.143Z,60.00
2022-08-12T09:32:06.781Z,59.20
2022-08-12T09:33:03.815Z,58.60
2022-08-12T09:34:29.520Z,61.00
2022-08-12T09:35:42.778Z,59.70
2022-08-12T09:37:00.964Z,61.90
2022-08-12T09:38:05.732Z,59.60
2022-08-12T09:40:04.206Z,58.80
2022-08-12T09:40:57.334Z,58.80
2022-08-12T09:42:43.050Z,58.50
2022-08-12T09:44:05.932Z,59.60
2022-08-12T09:45:23.083Z,59.20
2022-08-12T09:46:28.052Z,58.30
2022-08-12T09:47:33.643Z,59.40
2022-08-12T09:48:39.887Z,60.70
2022-08-12T09:49:42.935Z,58.10
2022-08-12T09:50:50.702Z,59.30
2022-08-12T09:51:57.216Z,59.20
2022-08-12T09:53:15.041Z,58.20
2022-08-12T09:54:32.645Z,59.30
2022-08-12T09:55:59.389Z,59.60
2022-08-12T09:58:07.379Z,59.90
2022-08-12T09:58:56.855Z,60.10
2022-08-12T10:00:16.324Z,59.90
2022-08-12T10:01:23.111Z,59.20
2022-08-12T10:02:42.576Z,59.20
2022-08-12T10:04:03.769Z,59.60
2022-08-12T10:05:13.532Z,60.00
2022-08-12T10:06:32.024Z,59.60
2022-08-12T10:07:40.024Z,58.20
2022-08-12T10:08:44.873Z,60.30
2022-08-12T10:09:58.620Z,59.80
2022-08-12T10:11:21.516Z,59.30
2022-08-12T10:12:43.117Z,59.80
2022-08-12T10:14:07.002Z,58.90
2022-08-12T10:16:02.225Z,58.70
2022-08-12T10:16:43.772Z,57.80
2022-08-12T10:18:06.619Z,59.40
2022-08-12T10:19:17.552Z,58.40
2022-08-12T10:20:19.835Z,59.30
2022-08-12T10:21:35.846Z,59.00
2022-08-12T10:22:41.361Z,57.50
2022-08-12T10:23:48.496Z,58.70
2022-08-12T10:25:17.596Z,59.30
2022-08-12T10:26:40.439Z,59.70
2022-08-12T10:28:24.232Z,59.80
2022-08-12T10:30:03.290Z,59.80
2022-08-12T10:31:16.246Z,59.00
2022-08-12T10:32:44.158Z,59.20
2022-08-12T10:33:55.721Z,60.40
2022-08-12T10:35:10.755Z,59.50
2022-08-12T10:36:12.809Z,60.10
2022-08-12T10:38:32.186Z,60.10
2022-08-12T10:38:41.491Z,60.10
2022-08-12T10:40:01.627Z,59.50
2022-08-12T10:41:56.586Z,61.00
2022-08-12T10:43:28.041Z,59.20
2022-08-12T10:44:33.846Z,58.20
2022-08-12T10:45:38.329Z,59.70
2022-08-12T10:46:42.283Z,58.80
2022-08-12T10:48:15.842Z,58.60
2022-08-12T10:50:02.407Z,60.30
2022-08-12T10:51:01.917Z,59.70
2022-08-12T10:52:34.392Z,59.40
2022-08-12T10:53:45.457Z,59.50
2022-08-12T10:54:51.072Z,61.10
2022-08-12T10:55:56.356Z,58.40
2022-08-12T10:57:00.721Z,57.90
2022-08-12T10:58:27.677Z,59.00
2022-08-12T11:00:03.806Z,59.50
2022-08-12T11:01:25.859Z,59.00
2022-08-12T11:04:22.959Z,58.50
2022-08-12T11:04:27.158Z,57.40
2022-08-12T11:07:02.536Z,59.20
2022-08-12T11:07:09.387Z,59.80
2022-08-12T11:08:39.015Z,58.50
2022-08-12T11:09:11.630Z,59.00
2022-08-12T11:10:14.974Z,60.00
2022-08-12T11:12:35.638Z,58.60
2022-08-12T11:12:58.975Z,57.20
2022-08-12T11:14:02.275Z,57.90
2022-08-12T11:15:18.816Z,57.70
2022-08-12T11:16:25.362Z,58.00
2022-08-12T11:17:43.302Z,58.60
2022-08-12T11:18:57.061Z,57.50
2022-08-12T11:19:59.205Z,59.00
2022-08-12T11:21:06.493Z,58.10
2022-08-12T11:22:11.525Z,58.30
2022-08-12T11:23:35.975Z,56.40
2022-08-12T11:24:37.218Z,57.40
2022-08-12T11:25:57.309Z,57.90
2022-08-12T11:27:07.803Z,58.40
2022-08-12T11:28:15.069Z,58.80
2022-08-12T11:29:22.691Z,58.30
2022-08-12T11:30:30.477Z,57.60
2022-08-12T11:31:40.881Z,57.30
2022-08-12T11:32:59.326Z,57.40
2022-08-12T11:34:05.906Z,58.50
2022-08-12T11:35:27.158Z,60.60
2022-08-12T11:36:31.846Z,58.10
2022-08-12T11:37:59.142Z,59.50
2022-08-12T11:39:04.241Z,59.70
2022-08-12T11:41:11.645Z,60.20
2022-08-12T11:42:14.066Z,59.90
2022-08-12T11:43:19.911Z,59.80
2022-08-12T11:44:37.343Z,59.80
2022-08-12T11:45:47.043Z,59.10
2022-08-12T11:46:54.009Z,58.00
2022-08-12T11:47:59.439Z,59.80
2022-08-12T11:49:02.945Z,60.90
2022-08-12T11:50:06.318Z,58.30
2022-08-12T11:51:09.723Z,59.00
2022-08-12T11:52:26.560Z,60.40
2022-08-12T11:53:59.035Z,59.40
2022-08-12T11:54:59.098Z,59.00
2022-08-12T11:56:02.858Z,58.40
2022-08-12T11:58:09.566Z,59.60
2022-08-12T11:59:35.999Z,59.30
2022-08-12T12:02:00.874Z,60.20
2022-08-12T12:02:39.386Z,58.30
2022-08-12T12:03:46.331Z,59.00
2022-08-12T12:04:52.184Z,60.00
2022-08-12T12:05:56.190Z,60.10
2022-08-12T12:07:07.106Z,60.30
2022-08-12T12:08:38.083Z,58.30
2022-08-12T12:09:52.678Z,58.60
2022-08-12T12:10:56.173Z,58.70
2022-08-12T12:11:58.455Z,59.30
2022-08-12T12:13:01.541Z,59.50
2022-08-12T12:14:05.556Z,58.80
2022-08-12T12:15:11.193Z,58.60
2022-08-12T12:16:15.656Z,59.40
2022-08-12T12:17:18.699Z,59.80
2022-08-12T12:18:31.096Z,60.10
2022-08-12T12:19:45.440Z,59.20
2022-08-12T12:20:50.055Z,60.00
2022-08-12T12:21:53.191Z,61.00
2022-08-12T12:22:55.684Z,62.20
2022-08-12T12:24:00.841Z,59.60
2022-08-12T12:25:13.181Z,60.00
2022-08-12T12:26:34.792Z,60.20
2022-08-12T12:28:04.792Z,59.70
2022-08-12T12:30:13.401Z,60.60
2022-08-12T12:30:31.521Z,58.80
2022-08-12T12:32:11.125Z,58.90
2022-08-12T12:32:58.055Z,59.30
2022-08-12T12:34:01.433Z,60.30
2022-08-12T12:35:13.152Z,60.80
2022-08-12T12:36:29.796Z,60.10
2022-08-12T12:38:04.251Z,59.20
2022-08-12T12:38:55.711Z,58.70
2022-08-12T12:39:58.060Z,58.40
2022-08-12T12:41:16.430Z,58.60
2022-08-12T12:42:55.831Z,59.00
2022-08-12T12:43:47.568Z,60.50
2022-08-12T12:45:19.009Z,60.70
2022-08-12T12:46:23.432Z,60.30
2022-08-12T12:47:30.198Z,60.30
2022-08-12T12:48:34.283Z,59.20
2022-08-12T12:49:38.218Z,59.50
2022-08-12T12:50:51.333Z,59.60
2022-08-12T12:52:18.206Z,59.10
2022-08-12T12:54:07.452Z,58.20
2022-08-12T12:54:52.350Z,58.80
2022-08-12T12:55:54.444Z,59.80
2022-08-12T12:56:58.393Z,59.50
2022-08-12T12:58:01.293Z,58.30
2022-08-12T12:59:05.891Z,59.80
2022-08-12T13:00:15.653Z,61.00
2022-08-12T13:01:27.346Z,59.30
2022-08-12T13:02:35.068Z,59.50
2022-08-12T13:03:48.915Z,59.90
2022-08-12T13:04:53.677Z,61.20
2022-08-12T13:06:00.450Z,58.80
2022-08-12T13:07:03.236Z,60.30
2022-08-12T13:08:28.030Z,59.80
2022-08-12T13:09:36.472Z,59.70
2022-08-12T13:10:39.690Z,60.60
2022-08-12T13:11:55.195Z,59.20
2022-08-12T13:14:06.431Z,58.10
2022-08-12T13:14:28.940Z,59.60
2022-08-12T13:15:45.342Z,59.20
2022-08-12T13:16:49.994Z,59.20
2022-08-12T13:18:03.158Z,59.90
2022-08-12T13:19:07.861Z,59.00
2022-08-12T13:20:13.392Z,59.40
2022-08-12T13:21:56.937Z,59.70
2022-08-12T13:23:02.655Z,60.70
2022-08-12T13:24:26.033Z,59.70
2022-08-12T13:25:33.947Z,60.10
2022-08-12T13:26:40.647Z,61.50
2022-08-12T13:27:46.253Z,59.60
2022-08-12T13:28:55.917Z,60.00
2022-08-12T13:30:03.704Z,60.40
2022-08-12T13:31:08.194Z,58.20
2022-08-12T13:32:28.267Z,59.70
2022-08-12T13:34:33.321Z,59.90
2022-08-12T13:35:04.032Z,60.20
2022-08-12T13:36:14.171Z,60.30
2022-08-12T13:37:26.539Z,59.70
2022-08-12T13:38:38.722Z,60.40
2022-08-12T13:39:41.179Z,60.30
2022-08-12T13:40:46.364Z,58.90
2022-08-12T13:41:49.620Z,60.10
2022-08-12T13:42:53.322Z,59.80
2022-08-12T13:43:55.415Z,60.40
2022-08-12T13:45:02.853Z,59.80
2022-08-12T13:46:11.925Z,60.20
2022-08-12T13:47:19.899Z,60.00
2022-08-12T13:48:28.866Z,61.00
2022-08-12T13:49:54.509Z,59.50
2022-08-12T13:50:57.251Z,60.00
2022-08-12T13:52:00.698Z,59.50
2022-08-12T13:53:23.419Z,59.70
2022-08-12T13:54:28.167Z,60.20
2022-08-12T13:55:31.212Z,60.10
2022-08-12T13:56:35.543Z,60.10
2022-08-12T13:57:44.580Z,60.10
2022-08-12T13:58:52.752Z,60.30
2022-08-12T14:00:00.455Z,59.50
2022-08-12T14:01:06.484Z,60.40
2022-08-12T14:02:13.506Z,60.10
2022-08-12T14:03:17.847Z,59.80
2022-08-12T14:04:20.168Z,60.40
2022-08-12T14:05:31.466Z,59.20
2022-08-12T14:06:44.767Z,59.30
2022-08-12T14:08:01.730Z,59.40
2022-08-12T14:09:17.974Z,58.30
2022-08-12T14:10:38.931Z,58.90
2022-08-12T14:11:59.375Z,59.50
2022-08-12T14:13:02.136Z,59.60
2022-08-12T14:14:12.919Z,60.20
2022-08-12T14:15:15.645Z,60.30
2022-08-12T14:16:46.735Z,59.80
2022-08-12T14:17:43.307Z,60.30
2022-08-12T14:18:55.686Z,60.50
2022-08-12T14:20:14.437Z,59.60
2022-08-12T14:21:18.216Z,60.30
2022-08-12T14:22:26.884Z,59.60
2022-08-12T14:24:04.319Z,60.10
2022-08-12T14:24:55.711Z,59.60
2022-08-12T14:26:00.655Z,58.80
2022-08-12T14:27:03.208Z,59.00
2022-08-12T14:28:11.539Z,59.90
2022-08-12T14:29:38.298Z,59.00
2022-08-12T14:30:36.819Z,59.60
2022-08-12T14:31:43.809Z,59.80
2022-08-12T14:32:45.855Z,61.00
2022-08-12T14:33:52.668Z,59.50
2022-08-12T14:34:56.709Z,60.20
2022-08-12T14:36:01.285Z,60.60
2022-08-12T14:37:07.298Z,60.50
2022-08-12T14:38:19.606Z,60.70
2022-08-12T14:39:25.492Z,59.20
2022-08-12T14:40:30.332Z,59.50
2022-08-12T14:41:36.696Z,60.70
2022-08-12T14:42:50.247Z,58.20
2022-08-12T14:44:04.562Z,60.40
2022-08-12T14:45:22.978Z,59.30
2022-08-12T14:46:27.806Z,59.10
2022-08-12T14:47:35.100Z,60.60
2022-08-12T14:48:40.057Z,59.20
2022-08-12T14:50:33.666Z,59.60
2022-08-12T14:52:57.662Z,60.90
2022-08-12T14:52:57.720Z,60.30
2022-08-12T14:56:08.958Z,60.20
2022-08-12T14:58:05.025Z,60.10
2022-08-12T14:59:24.193Z,60.60
2022-08-12T15:00:50.654Z,60.60
2022-08-12T15:01:55.491Z,60.70
2022-08-12T15:02:57.551Z,59.90
2022-08-12T15:04:02.260Z,60.20
2022-08-12T15:05:04.931Z,60.50
2022-08-12T15:06:44.277Z,59.70
2022-08-12T15:07:48.886Z,60.70
2022-08-12T15:08:54.484Z,59.10
2022-08-12T15:09:56.530Z,59.10
2022-08-12T15:11:03.075Z,58.70
2022-08-12T15:12:14.591Z,58.90
2022-08-12T15:13:19.762Z,58.50
2022-08-12T15:14:30.441Z,59.60
2022-08-12T15:15:38.616Z,60.00
2022-08-12T15:16:48.705Z,59.10
2022-08-12T15:18:01.953Z,59.10
2022-08-12T15:19:07.117Z,59.60
2022-08-12T15:20:33.468Z,60.30